sensor_id;sensor_type;location;lat;lon;timestamp;P1;durP1;ratioP1;P2;durP2;ratioP2
10872;SDS011;34586;53.616;10.032;2024-02-16T00:00:16;5.63;;;5.17;;
10872;SDS011;34586;53.616;10.032;2024-02-16T00:02:42;9.20;;;5.33;;
10872;SDS011;34586;53.616;10.032;2024-02-16T00:05:09;7.97;;;5.50;;
10872;SDS011;34586;53.616;10.032;2024-02-16T00:07:38;7.80;;;5.70;;
10872;SDS011;34586;53.616;10.032;2024-02-16T00:10:04;8.97;;;6.10;;
10872;SDS011;34586;53.616;10.032;2024-02-16T00:12:31;8.33;;;5.60;;
10872;SDS011;34586;53.616;10.032;2024-02-16T00:14:58;7.00;;;5.30;;
10872;SDS011;34586;53.616;10.032;2024-02-16T00:17:24;6.83;;;5.03;;
10872;SDS011;34586;53.616;10.032;2024-02-16T00:19:52;8.77;;;5.30;;
10872;SDS011;34586;53.616;10.032;2024-02-16T00:22:18;7.40;;;4.97;;
10872;SDS011;34586;53.616;10.032;2024-02-16T00:24:44;6.27;;;4.90;;
10872;SDS011;34586;53.616;10.032;2024-02-16T00:27:10;7.70;;;5.03;;
10872;SDS011;34586;53.616;10.032;2024-02-16T00:29:35;6.90;;;4.93;;
10872;SDS011;34586;53.616;10.032;2024-02-16T00:32:03;6.40;;;4.93;;
10872;SDS011;34586;53.616;10.032;2024-02-16T00:34:31;8.13;;;5.10;;
10872;SDS011;34586;53.616;10.032;2024-02-16T00:36:57;7.27;;;5.00;;
10872;SDS011;34586;53.616;10.032;2024-02-16T00:39:23;8.70;;;4.90;;
10872;SDS011;34586;53.616;10.032;2024-02-16T00:41:49;8.23;;;4.60;;
10872;SDS011;34586;53.616;10.032;2024-02-16T00:44:18;5.57;;;4.70;;
10872;SDS011;34586;53.616;10.032;2024-02-16T00:46:44;5.63;;;4.37;;
10872;SDS011;34586;53.616;10.032;2024-02-16T00:49:10;6.00;;;4.33;;
10872;SDS011;34586;53.616;10.032;2024-02-16T00:51:36;7.07;;;4.23;;
10872;SDS011;34586;53.616;10.032;2024-02-16T00:54:02;4.97;;;4.47;;
10872;SDS011;34586;53.616;10.032;2024-02-16T00:56:28;6.10;;;3.77;;
10872;SDS011;34586;53.616;10.032;2024-02-16T00:58:55;7.57;;;4.20;;
10872;SDS011;34586;53.616;10.032;2024-02-16T01:01:20;4.27;;;3.90;;
10872;SDS011;34586;53.616;10.032;2024-02-16T01:03:47;5.47;;;4.27;;
10872;SDS011;34586;53.616;10.032;2024-02-16T01:06:19;6.17;;;3.90;;
10872;SDS011;34586;53.616;10.032;2024-02-16T01:08:45;5.13;;;3.97;;
10872;SDS011;34586;53.616;10.032;2024-02-16T01:11:11;8.07;;;3.97;;
10872;SDS011;34586;53.616;10.032;2024-02-16T01:13:38;7.17;;;4.17;;
10872;SDS011;34586;53.616;10.032;2024-02-16T01:16:04;7.20;;;3.70;;
10872;SDS011;34586;53.616;10.032;2024-02-16T01:18:31;5.20;;;4.00;;
10872;SDS011;34586;53.616;10.032;2024-02-16T01:20:58;5.93;;;4.00;;
10872;SDS011;34586;53.616;10.032;2024-02-16T01:23:23;4.47;;;3.83;;
10872;SDS011;34586;53.616;10.032;2024-02-16T01:25:49;6.07;;;3.63;;
10872;SDS011;34586;53.616;10.032;2024-02-16T01:28:15;7.07;;;4.07;;
10872;SDS011;34586;53.616;10.032;2024-02-16T01:30:41;7.87;;;3.90;;
10872;SDS011;34586;53.616;10.032;2024-02-16T01:33:07;7.33;;;4.10;;
10872;SDS011;34586;53.616;10.032;2024-02-16T01:35:33;5.33;;;3.40;;
10872;SDS011;34586;53.616;10.032;2024-02-16T01:37:59;6.70;;;3.83;;
10872;SDS011;34586;53.616;10.032;2024-02-16T01:40:24;6.57;;;4.10;;
10872;SDS011;34586;53.616;10.032;2024-02-16T01:42:51;5.17;;;3.60;;
10872;SDS011;34586;53.616;10.032;2024-02-16T01:45:20;8.97;;;3.93;;
10872;SDS011;34586;53.616;10.032;2024-02-16T01:47:47;3.87;;;3.53;;
10872;SDS011;34586;53.616;10.032;2024-02-16T01:50:15;5.33;;;4.03;;
10872;SDS011;34586;53.616;10.032;2024-02-16T01:52:45;5.27;;;4.33;;
10872;SDS011;34586;53.616;10.032;2024-02-16T01:55:11;6.40;;;3.90;;
10872;SDS011;34586;53.616;10.032;2024-02-16T01:57:42;5.47;;;3.80;;
10872;SDS011;34586;53.616;10.032;2024-02-16T02:00:09;4.87;;;3.57;;
10872;SDS011;34586;53.616;10.032;2024-02-16T02:02:35;6.30;;;3.80;;
10872;SDS011;34586;53.616;10.032;2024-02-16T02:05:01;5.00;;;3.83;;
10872;SDS011;34586;53.616;10.032;2024-02-16T02:07:28;5.20;;;3.53;;
10872;SDS011;34586;53.616;10.032;2024-02-16T02:09:54;5.63;;;3.83;;
10872;SDS011;34586;53.616;10.032;2024-02-16T02:12:20;5.30;;;4.00;;
10872;SDS011;34586;53.616;10.032;2024-02-16T02:14:46;5.27;;;3.80;;
10872;SDS011;34586;53.616;10.032;2024-02-16T02:17:12;8.83;;;4.23;;
10872;SDS011;34586;53.616;10.032;2024-02-16T02:19:38;3.97;;;3.63;;
10872;SDS011;34586;53.616;10.032;2024-02-16T02:22:04;7.23;;;4.13;;
10872;SDS011;34586;53.616;10.032;2024-02-16T02:24:29;4.10;;;3.40;;
10872;SDS011;34586;53.616;10.032;2024-02-16T02:26:55;5.73;;;4.00;;
10872;SDS011;34586;53.616;10.032;2024-02-16T02:29:22;6.53;;;4.30;;
10872;SDS011;34586;53.616;10.032;2024-02-16T02:31:48;6.67;;;3.60;;
10872;SDS011;34586;53.616;10.032;2024-02-16T02:34:14;4.93;;;4.10;;
10872;SDS011;34586;53.616;10.032;2024-02-16T02:36:40;3.80;;;3.50;;
10872;SDS011;34586;53.616;10.032;2024-02-16T02:39:06;6.93;;;4.00;;
10872;SDS011;34586;53.616;10.032;2024-02-16T02:41:32;4.83;;;3.87;;
10872;SDS011;34586;53.616;10.032;2024-02-16T02:43:57;8.00;;;3.83;;
10872;SDS011;34586;53.616;10.032;2024-02-16T02:46:23;5.87;;;3.63;;
10872;SDS011;34586;53.616;10.032;2024-02-16T02:48:49;6.70;;;4.37;;
10872;SDS011;34586;53.616;10.032;2024-02-16T02:51:15;6.47;;;4.00;;
10872;SDS011;34586;53.616;10.032;2024-02-16T02:53:40;8.63;;;4.20;;
10872;SDS011;34586;53.616;10.032;2024-02-16T02:56:06;5.53;;;4.27;;
10872;SDS011;34586;53.616;10.032;2024-02-16T02:58:32;4.97;;;3.70;;
10872;SDS011;34586;53.616;10.032;2024-02-16T03:00:58;6.40;;;3.80;;
10872;SDS011;34586;53.616;10.032;2024-02-16T03:03:24;6.83;;;3.93;;
10872;SDS011;34586;53.616;10.032;2024-02-16T03:05:49;6.07;;;4.13;;
10872;SDS011;34586;53.616;10.032;2024-02-16T03:08:15;5.83;;;3.63;;
10872;SDS011;34586;53.616;10.032;2024-02-16T03:10:41;7.70;;;4.03;;
10872;SDS011;34586;53.616;10.032;2024-02-16T03:13:07;5.10;;;4.00;;
10872;SDS011;34586;53.616;10.032;2024-02-16T03:15:33;5.93;;;3.80;;
10872;SDS011;34586;53.616;10.032;2024-02-16T03:18:00;4.27;;;3.73;;
10872;SDS011;34586;53.616;10.032;2024-02-16T03:20:26;4.57;;;4.10;;
10872;SDS011;34586;53.616;10.032;2024-02-16T03:22:52;7.93;;;4.00;;
10872;SDS011;34586;53.616;10.032;2024-02-16T03:25:18;8.97;;;4.37;;
10872;SDS011;34586;53.616;10.032;2024-02-16T03:27:45;5.20;;;3.80;;
10872;SDS011;34586;53.616;10.032;2024-02-16T03:30:10;8.03;;;4.30;;
10872;SDS011;34586;53.616;10.032;2024-02-16T03:32:36;6.60;;;4.17;;
10872;SDS011;34586;53.616;10.032;2024-02-16T03:35:02;5.07;;;3.37;;
10872;SDS011;34586;53.616;10.032;2024-02-16T03:37:29;9.93;;;4.03;;
10872;SDS011;34586;53.616;10.032;2024-02-16T03:39:55;4.67;;;3.60;;
10872;SDS011;34586;53.616;10.032;2024-02-16T03:42:21;5.20;;;3.83;;
10872;SDS011;34586;53.616;10.032;2024-02-16T03:44:46;4.90;;;3.80;;
10872;SDS011;34586;53.616;10.032;2024-02-16T03:47:12;5.63;;;3.70;;
10872;SDS011;34586;53.616;10.032;2024-02-16T03:49:38;5.97;;;3.97;;
10872;SDS011;34586;53.616;10.032;2024-02-16T03:52:04;6.77;;;3.60;;
10872;SDS011;34586;53.616;10.032;2024-02-16T03:54:30;4.03;;;3.30;;
10872;SDS011;34586;53.616;10.032;2024-02-16T03:56:56;6.57;;;3.50;;
10872;SDS011;34586;53.616;10.032;2024-02-16T03:59:23;7.47;;;3.57;;
10872;SDS011;34586;53.616;10.032;2024-02-16T04:01:49;4.63;;;3.40;;
10872;SDS011;34586;53.616;10.032;2024-02-16T04:04:15;4.47;;;3.47;;
10872;SDS011;34586;53.616;10.032;2024-02-16T04:06:40;3.37;;;3.00;;
10872;SDS011;34586;53.616;10.032;2024-02-16T04:09:06;4.50;;;3.60;;
10872;SDS011;34586;53.616;10.032;2024-02-16T04:11:33;4.27;;;3.27;;
10872;SDS011;34586;53.616;10.032;2024-02-16T04:13:59;4.97;;;3.60;;
10872;SDS011;34586;53.616;10.032;2024-02-16T04:16:24;4.40;;;3.37;;
10872;SDS011;34586;53.616;10.032;2024-02-16T04:18:51;6.00;;;3.57;;
10872;SDS011;34586;53.616;10.032;2024-02-16T04:21:16;3.97;;;3.27;;
10872;SDS011;34586;53.616;10.032;2024-02-16T04:23:42;10.20;;;3.90;;
10872;SDS011;34586;53.616;10.032;2024-02-16T04:26:08;8.03;;;3.50;;
10872;SDS011;34586;53.616;10.032;2024-02-16T04:28:34;4.60;;;3.50;;
10872;SDS011;34586;53.616;10.032;2024-02-16T04:31:01;6.10;;;3.77;;
10872;SDS011;34586;53.616;10.032;2024-02-16T04:33:27;6.23;;;3.90;;
10872;SDS011;34586;53.616;10.032;2024-02-16T04:35:52;5.67;;;3.60;;
10872;SDS011;34586;53.616;10.032;2024-02-16T04:38:18;7.53;;;3.43;;
10872;SDS011;34586;53.616;10.032;2024-02-16T04:40:44;7.63;;;3.57;;
10872;SDS011;34586;53.616;10.032;2024-02-16T04:43:10;7.17;;;3.20;;
10872;SDS011;34586;53.616;10.032;2024-02-16T04:45:36;4.63;;;3.30;;
10872;SDS011;34586;53.616;10.032;2024-02-16T04:48:05;6.77;;;3.20;;
10872;SDS011;34586;53.616;10.032;2024-02-16T04:50:34;6.63;;;3.60;;
10872;SDS011;34586;53.616;10.032;2024-02-16T04:53:00;4.40;;;3.27;;
10872;SDS011;34586;53.616;10.032;2024-02-16T04:55:29;7.23;;;3.00;;
10872;SDS011;34586;53.616;10.032;2024-02-16T04:57:55;6.70;;;3.10;;
10872;SDS011;34586;53.616;10.032;2024-02-16T05:00:21;5.43;;;2.90;;
10872;SDS011;34586;53.616;10.032;2024-02-16T05:02:47;4.83;;;3.23;;
10872;SDS011;34586;53.616;10.032;2024-02-16T05:05:13;4.73;;;3.17;;
10872;SDS011;34586;53.616;10.032;2024-02-16T05:07:40;4.90;;;2.83;;
10872;SDS011;34586;53.616;10.032;2024-02-16T05:10:10;4.90;;;2.80;;
10872;SDS011;34586;53.616;10.032;2024-02-16T05:12:36;6.90;;;2.97;;
10872;SDS011;34586;53.616;10.032;2024-02-16T05:15:02;7.47;;;2.70;;
10872;SDS011;34586;53.616;10.032;2024-02-16T05:17:28;4.80;;;3.00;;
10872;SDS011;34586;53.616;10.032;2024-02-16T05:19:54;5.97;;;2.60;;
10872;SDS011;34586;53.616;10.032;2024-02-16T05:22:19;3.87;;;2.40;;
10872;SDS011;34586;53.616;10.032;2024-02-16T05:24:47;5.77;;;3.10;;
10872;SDS011;34586;53.616;10.032;2024-02-16T05:27:13;6.07;;;2.90;;
10872;SDS011;34586;53.616;10.032;2024-02-16T05:29:39;3.83;;;2.73;;
10872;SDS011;34586;53.616;10.032;2024-02-16T05:32:05;3.97;;;2.60;;
10872;SDS011;34586;53.616;10.032;2024-02-16T05:34:31;7.07;;;3.10;;
10872;SDS011;34586;53.616;10.032;2024-02-16T05:37:03;8.17;;;4.90;;
10872;SDS011;34586;53.616;10.032;2024-02-16T05:39:38;8.10;;;6.77;;
10872;SDS011;34586;53.616;10.032;2024-02-16T05:42:19;8.00;;;6.03;;
10872;SDS011;34586;53.616;10.032;2024-02-16T05:44:47;6.13;;;4.63;;
10872;SDS011;34586;53.616;10.032;2024-02-16T05:47:14;7.73;;;4.00;;
10872;SDS011;34586;53.616;10.032;2024-02-16T05:49:41;6.37;;;4.00;;
10872;SDS011;34586;53.616;10.032;2024-02-16T05:52:07;6.57;;;3.83;;
10872;SDS011;34586;53.616;10.032;2024-02-16T05:54:45;7.47;;;4.00;;
10872;SDS011;34586;53.616;10.032;2024-02-16T05:57:12;6.93;;;4.10;;
10872;SDS011;34586;53.616;10.032;2024-02-16T05:59:38;4.67;;;3.50;;
10872;SDS011;34586;53.616;10.032;2024-02-16T06:02:05;5.07;;;3.10;;
10872;SDS011;34586;53.616;10.032;2024-02-16T06:04:32;5.47;;;3.00;;
10872;SDS011;34586;53.616;10.032;2024-02-16T06:06:58;6.33;;;2.90;;
10872;SDS011;34586;53.616;10.032;2024-02-16T06:09:25;4.43;;;2.93;;
10872;SDS011;34586;53.616;10.032;2024-02-16T06:11:58;7.27;;;3.20;;
10872;SDS011;34586;53.616;10.032;2024-02-16T06:14:29;3.40;;;3.10;;
10872;SDS011;34586;53.616;10.032;2024-02-16T06:16:56;3.93;;;2.93;;
10872;SDS011;34586;53.616;10.032;2024-02-16T06:19:22;2.63;;;2.43;;
10872;SDS011;34586;53.616;10.032;2024-02-16T06:21:47;5.77;;;2.73;;
10872;SDS011;34586;53.616;10.032;2024-02-16T06:24:13;5.97;;;2.87;;
10872;SDS011;34586;53.616;10.032;2024-02-16T06:26:38;5.03;;;2.90;;
10872;SDS011;34586;53.616;10.032;2024-02-16T06:29:04;7.60;;;3.03;;
10872;SDS011;34586;53.616;10.032;2024-02-16T06:31:29;5.70;;;3.40;;
10872;SDS011;34586;53.616;10.032;2024-02-16T06:33:55;4.90;;;2.80;;
10872;SDS011;34586;53.616;10.032;2024-02-16T06:36:22;4.20;;;2.90;;
10872;SDS011;34586;53.616;10.032;2024-02-16T06:38:48;6.50;;;3.10;;
10872;SDS011;34586;53.616;10.032;2024-02-16T06:41:13;6.30;;;3.00;;
10872;SDS011;34586;53.616;10.032;2024-02-16T06:43:39;7.33;;;2.87;;
10872;SDS011;34586;53.616;10.032;2024-02-16T06:46:05;6.47;;;3.00;;
10872;SDS011;34586;53.616;10.032;2024-02-16T06:48:31;7.73;;;3.87;;
10872;SDS011;34586;53.616;10.032;2024-02-16T06:50:56;5.50;;;3.37;;
10872;SDS011;34586;53.616;10.032;2024-02-16T06:53:22;4.70;;;2.90;;
10872;SDS011;34586;53.616;10.032;2024-02-16T06:55:47;7.57;;;3.37;;
10872;SDS011;34586;53.616;10.032;2024-02-16T06:58:13;4.27;;;3.00;;
10872;SDS011;34586;53.616;10.032;2024-02-16T07:00:39;9.23;;;7.27;;
10872;SDS011;34586;53.616;10.032;2024-02-16T07:03:07;5.87;;;4.23;;
10872;SDS011;34586;53.616;10.032;2024-02-16T07:05:33;5.47;;;3.40;;
10872;SDS011;34586;53.616;10.032;2024-02-16T07:07:59;7.07;;;3.10;;
10872;SDS011;34586;53.616;10.032;2024-02-16T07:10:24;4.53;;;3.10;;
10872;SDS011;34586;53.616;10.032;2024-02-16T07:12:50;7.33;;;3.40;;
10872;SDS011;34586;53.616;10.032;2024-02-16T07:15:15;5.27;;;3.27;;
10872;SDS011;34586;53.616;10.032;2024-02-16T07:17:41;4.60;;;2.67;;
10872;SDS011;34586;53.616;10.032;2024-02-16T07:20:07;8.77;;;3.30;;
10872;SDS011;34586;53.616;10.032;2024-02-16T07:22:33;8.03;;;4.73;;
10872;SDS011;34586;53.616;10.032;2024-02-16T07:24:59;17.87;;;9.73;;
10872;SDS011;34586;53.616;10.032;2024-02-16T07:27:30;17.43;;;9.47;;
10872;SDS011;34586;53.616;10.032;2024-02-16T07:29:55;12.30;;;8.37;;
10872;SDS011;34586;53.616;10.032;2024-02-16T07:32:21;14.40;;;8.27;;
10872;SDS011;34586;53.616;10.032;2024-02-16T07:34:47;11.07;;;7.43;;
10872;SDS011;34586;53.616;10.032;2024-02-16T07:37:13;9.53;;;5.20;;
10872;SDS011;34586;53.616;10.032;2024-02-16T07:39:39;8.13;;;3.93;;
10872;SDS011;34586;53.616;10.032;2024-02-16T07:42:06;4.63;;;2.93;;
10872;SDS011;34586;53.616;10.032;2024-02-16T07:44:34;5.53;;;2.60;;
10872;SDS011;34586;53.616;10.032;2024-02-16T07:47:03;3.20;;;2.77;;
10872;SDS011;34586;53.616;10.032;2024-02-16T07:49:29;2.50;;;2.30;;
10872;SDS011;34586;53.616;10.032;2024-02-16T07:51:55;4.93;;;2.53;;
10872;SDS011;34586;53.616;10.032;2024-02-16T07:54:20;22.30;;;3.70;;
10872;SDS011;34586;53.616;10.032;2024-02-16T07:56:46;5.60;;;2.97;;
10872;SDS011;34586;53.616;10.032;2024-02-16T07:59:11;3.80;;;2.20;;
10872;SDS011;34586;53.616;10.032;2024-02-16T08:01:37;4.70;;;2.30;;
10872;SDS011;34586;53.616;10.032;2024-02-16T08:04:03;3.93;;;2.00;;
10872;SDS011;34586;53.616;10.032;2024-02-16T08:06:29;4.93;;;2.03;;
10872;SDS011;34586;53.616;10.032;2024-02-16T08:08:55;3.60;;;1.93;;
10872;SDS011;34586;53.616;10.032;2024-02-16T08:11:22;6.10;;;1.90;;
10872;SDS011;34586;53.616;10.032;2024-02-16T08:13:48;6.30;;;2.37;;
10872;SDS011;34586;53.616;10.032;2024-02-16T08:16:13;5.97;;;1.87;;
10872;SDS011;34586;53.616;10.032;2024-02-16T08:18:39;7.10;;;5.30;;
10872;SDS011;34586;53.616;10.032;2024-02-16T08:21:04;6.23;;;2.30;;
10872;SDS011;34586;53.616;10.032;2024-02-16T08:23:30;4.07;;;1.77;;
10872;SDS011;34586;53.616;10.032;2024-02-16T08:25:56;4.23;;;2.10;;
10872;SDS011;34586;53.616;10.032;2024-02-16T08:28:23;1.50;;;1.40;;
10872;SDS011;34586;53.616;10.032;2024-02-16T08:30:49;3.33;;;2.03;;
10872;SDS011;34586;53.616;10.032;2024-02-16T08:33:15;5.00;;;1.67;;
10872;SDS011;34586;53.616;10.032;2024-02-16T08:35:41;3.60;;;2.13;;
10872;SDS011;34586;53.616;10.032;2024-02-16T08:38:06;3.43;;;2.13;;
10872;SDS011;34586;53.616;10.032;2024-02-16T08:40:36;4.27;;;2.03;;
10872;SDS011;34586;53.616;10.032;2024-02-16T08:43:03;4.00;;;2.50;;
10872;SDS011;34586;53.616;10.032;2024-02-16T08:45:34;3.13;;;2.27;;
10872;SDS011;34586;53.616;10.032;2024-02-16T08:48:00;4.93;;;2.20;;
10872;SDS011;34586;53.616;10.032;2024-02-16T08:50:28;5.40;;;2.30;;
10872;SDS011;34586;53.616;10.032;2024-02-16T08:52:54;3.10;;;1.80;;
10872;SDS011;34586;53.616;10.032;2024-02-16T08:55:20;4.63;;;1.97;;
10872;SDS011;34586;53.616;10.032;2024-02-16T08:57:46;4.43;;;2.00;;
10872;SDS011;34586;53.616;10.032;2024-02-16T09:00:12;8.67;;;6.17;;
10872;SDS011;34586;53.616;10.032;2024-02-16T09:02:38;4.80;;;2.57;;
10872;SDS011;34586;53.616;10.032;2024-02-16T09:05:04;4.53;;;1.87;;
10872;SDS011;34586;53.616;10.032;2024-02-16T09:07:30;2.20;;;1.70;;
10872;SDS011;34586;53.616;10.032;2024-02-16T09:09:55;4.67;;;2.03;;
10872;SDS011;34586;53.616;10.032;2024-02-16T09:12:22;4.27;;;1.80;;
10872;SDS011;34586;53.616;10.032;2024-02-16T09:14:47;1.80;;;1.50;;
10872;SDS011;34586;53.616;10.032;2024-02-16T09:17:13;2.50;;;1.50;;
10872;SDS011;34586;53.616;10.032;2024-02-16T09:19:39;6.40;;;2.83;;
10872;SDS011;34586;53.616;10.032;2024-02-16T09:22:04;4.03;;;3.40;;
10872;SDS011;34586;53.616;10.032;2024-02-16T09:24:31;2.60;;;2.10;;
10872;SDS011;34586;53.616;10.032;2024-02-16T09:26:57;3.90;;;1.83;;
10872;SDS011;34586;53.616;10.032;2024-02-16T09:29:28;1.80;;;1.53;;
10872;SDS011;34586;53.616;10.032;2024-02-16T09:31:54;2.50;;;1.60;;
10872;SDS011;34586;53.616;10.032;2024-02-16T09:34:20;3.37;;;1.90;;
10872;SDS011;34586;53.616;10.032;2024-02-16T09:36:45;3.57;;;1.70;;
10872;SDS011;34586;53.616;10.032;2024-02-16T09:39:11;3.93;;;1.87;;
10872;SDS011;34586;53.616;10.032;2024-02-16T09:41:37;3.63;;;1.53;;
10872;SDS011;34586;53.616;10.032;2024-02-16T09:44:08;2.83;;;1.60;;
10872;SDS011;34586;53.616;10.032;2024-02-16T09:46:35;3.63;;;1.90;;
10872;SDS011;34586;53.616;10.032;2024-02-16T09:49:01;3.50;;;1.93;;
10872;SDS011;34586;53.616;10.032;2024-02-16T09:51:28;2.60;;;2.13;;
10872;SDS011;34586;53.616;10.032;2024-02-16T09:53:55;3.73;;;1.83;;
10872;SDS011;34586;53.616;10.032;2024-02-16T09:56:21;3.37;;;2.03;;
10872;SDS011;34586;53.616;10.032;2024-02-16T09:58:46;6.90;;;2.27;;
10872;SDS011;34586;53.616;10.032;2024-02-16T10:01:18;5.83;;;2.27;;
10872;SDS011;34586;53.616;10.032;2024-02-16T10:03:51;2.80;;;1.97;;
10872;SDS011;34586;53.616;10.032;2024-02-16T10:06:17;2.50;;;1.47;;
10872;SDS011;34586;53.616;10.032;2024-02-16T10:11:18;4.80;;;2.03;;
10872;SDS011;34586;53.616;10.032;2024-02-16T10:13:57;3.57;;;1.90;;
10872;SDS011;34586;53.616;10.032;2024-02-16T10:16:27;2.57;;;1.53;;
10872;SDS011;34586;53.616;10.032;2024-02-16T10:18:55;4.80;;;1.93;;
10872;SDS011;34586;53.616;10.032;2024-02-16T10:21:27;3.30;;;1.90;;
10872;SDS011;34586;53.616;10.032;2024-02-16T10:23:57;5.33;;;1.77;;
10872;SDS011;34586;53.616;10.032;2024-02-16T10:26:30;4.40;;;1.60;;
10872;SDS011;34586;53.616;10.032;2024-02-16T10:28:56;8.13;;;2.93;;
10872;SDS011;34586;53.616;10.032;2024-02-16T10:31:23;9.87;;;3.50;;
10872;SDS011;34586;53.616;10.032;2024-02-16T10:33:55;8.60;;;2.83;;
10872;SDS011;34586;53.616;10.032;2024-02-16T10:36:31;5.03;;;2.00;;
10872;SDS011;34586;53.616;10.032;2024-02-16T10:39:01;5.60;;;2.53;;
10872;SDS011;34586;53.616;10.032;2024-02-16T10:41:34;6.93;;;2.27;;
10872;SDS011;34586;53.616;10.032;2024-02-16T10:44:01;5.27;;;2.13;;
10872;SDS011;34586;53.616;10.032;2024-02-16T10:46:29;4.10;;;1.80;;
10872;SDS011;34586;53.616;10.032;2024-02-16T10:48:55;5.03;;;1.87;;
10872;SDS011;34586;53.616;10.032;2024-02-16T10:51:26;4.97;;;1.50;;
10872;SDS011;34586;53.616;10.032;2024-02-16T10:53:56;2.17;;;1.40;;
10872;SDS011;34586;53.616;10.032;2024-02-16T10:56:31;4.57;;;1.67;;
10872;SDS011;34586;53.616;10.032;2024-02-16T10:59:04;3.13;;;1.47;;
10872;SDS011;34586;53.616;10.032;2024-02-16T11:01:32;3.70;;;1.40;;
10872;SDS011;34586;53.616;10.032;2024-02-16T11:04:05;3.03;;;1.40;;
10872;SDS011;34586;53.616;10.032;2024-02-16T11:06:44;1.77;;;1.27;;
10872;SDS011;34586;53.616;10.032;2024-02-16T11:09:10;2.27;;;1.53;;
10872;SDS011;34586;53.616;10.032;2024-02-16T11:11:36;6.07;;;1.73;;
10872;SDS011;34586;53.616;10.032;2024-02-16T11:14:02;2.13;;;1.63;;
10872;SDS011;34586;53.616;10.032;2024-02-16T11:16:29;2.07;;;1.50;;
10872;SDS011;34586;53.616;10.032;2024-02-16T11:18:54;3.30;;;1.83;;
10872;SDS011;34586;53.616;10.032;2024-02-16T11:21:21;1.60;;;1.30;;
10872;SDS011;34586;53.616;10.032;2024-02-16T11:23:47;2.53;;;1.60;;
10872;SDS011;34586;53.616;10.032;2024-02-16T11:26:13;3.67;;;1.30;;
10872;SDS011;34586;53.616;10.032;2024-02-16T11:28:41;2.40;;;1.60;;
10872;SDS011;34586;53.616;10.032;2024-02-16T11:31:07;3.23;;;1.47;;
10872;SDS011;34586;53.616;10.032;2024-02-16T11:33:33;2.27;;;1.23;;
10872;SDS011;34586;53.616;10.032;2024-02-16T11:36:00;3.73;;;1.93;;
10872;SDS011;34586;53.616;10.032;2024-02-16T11:38:32;2.63;;;1.77;;
10872;SDS011;34586;53.616;10.032;2024-02-16T11:41:02;2.97;;;1.67;;
10872;SDS011;34586;53.616;10.032;2024-02-16T11:43:29;4.03;;;1.90;;
10872;SDS011;34586;53.616;10.032;2024-02-16T11:45:57;3.70;;;1.67;;
10872;SDS011;34586;53.616;10.032;2024-02-16T11:48:25;1.30;;;1.20;;
10872;SDS011;34586;53.616;10.032;2024-02-16T11:51:02;3.23;;;1.20;;
10872;SDS011;34586;53.616;10.032;2024-02-16T11:53:31;2.27;;;1.53;;
10872;SDS011;34586;53.616;10.032;2024-02-16T11:55:57;2.50;;;1.50;;
10872;SDS011;34586;53.616;10.032;2024-02-16T11:58:23;3.50;;;1.83;;
10872;SDS011;34586;53.616;10.032;2024-02-16T12:00:50;4.83;;;1.90;;
10872;SDS011;34586;53.616;10.032;2024-02-16T12:03:25;3.80;;;1.70;;
10872;SDS011;34586;53.616;10.032;2024-02-16T12:05:56;2.33;;;1.90;;
10872;SDS011;34586;53.616;10.032;2024-02-16T12:08:22;4.17;;;1.90;;
10872;SDS011;34586;53.616;10.032;2024-02-16T12:10:50;4.97;;;1.93;;
10872;SDS011;34586;53.616;10.032;2024-02-16T12:13:17;4.73;;;2.00;;
10872;SDS011;34586;53.616;10.032;2024-02-16T12:15:44;2.47;;;1.50;;
10872;SDS011;34586;53.616;10.032;2024-02-16T12:18:10;2.40;;;1.60;;
10872;SDS011;34586;53.616;10.032;2024-02-16T12:20:43;4.40;;;2.23;;
10872;SDS011;34586;53.616;10.032;2024-02-16T12:23:12;2.73;;;1.57;;
10872;SDS011;34586;53.616;10.032;2024-02-16T12:25:39;3.53;;;1.87;;
10872;SDS011;34586;53.616;10.032;2024-02-16T12:28:04;3.87;;;1.70;;
10872;SDS011;34586;53.616;10.032;2024-02-16T12:30:31;4.03;;;1.97;;
10872;SDS011;34586;53.616;10.032;2024-02-16T12:32:56;3.77;;;1.97;;
10872;SDS011;34586;53.616;10.032;2024-02-16T12:35:22;5.30;;;2.17;;
10872;SDS011;34586;53.616;10.032;2024-02-16T12:37:47;3.10;;;2.10;;
10872;SDS011;34586;53.616;10.032;2024-02-16T12:40:13;4.40;;;1.87;;
10872;SDS011;34586;53.616;10.032;2024-02-16T12:42:38;4.80;;;2.33;;
10872;SDS011;34586;53.616;10.032;2024-02-16T12:45:04;5.13;;;1.80;;
10872;SDS011;34586;53.616;10.032;2024-02-16T12:47:30;3.00;;;2.10;;
10872;SDS011;34586;53.616;10.032;2024-02-16T12:49:56;5.13;;;2.30;;
10872;SDS011;34586;53.616;10.032;2024-02-16T12:52:22;3.40;;;2.20;;
10872;SDS011;34586;53.616;10.032;2024-02-16T12:54:48;5.03;;;2.23;;
10872;SDS011;34586;53.616;10.032;2024-02-16T12:57:14;4.67;;;1.83;;
10872;SDS011;34586;53.616;10.032;2024-02-16T12:59:39;3.40;;;1.80;;
10872;SDS011;34586;53.616;10.032;2024-02-16T13:02:05;5.73;;;2.30;;
10872;SDS011;34586;53.616;10.032;2024-02-16T13:04:30;5.13;;;2.30;;
10872;SDS011;34586;53.616;10.032;2024-02-16T13:06:57;4.37;;;1.97;;
10872;SDS011;34586;53.616;10.032;2024-02-16T13:09:23;5.60;;;2.33;;
10872;SDS011;34586;53.616;10.032;2024-02-16T13:11:49;3.33;;;2.00;;
10872;SDS011;34586;53.616;10.032;2024-02-16T13:14:19;4.57;;;2.53;;
10872;SDS011;34586;53.616;10.032;2024-02-16T13:16:45;3.50;;;2.10;;
10872;SDS011;34586;53.616;10.032;2024-02-16T13:19:12;2.93;;;2.07;;
10872;SDS011;34586;53.616;10.032;2024-02-16T13:21:38;3.83;;;2.50;;
10872;SDS011;34586;53.616;10.032;2024-02-16T13:24:03;3.40;;;2.10;;
10872;SDS011;34586;53.616;10.032;2024-02-16T13:26:30;5.10;;;2.53;;
10872;SDS011;34586;53.616;10.032;2024-02-16T13:28:56;5.57;;;2.50;;
10872;SDS011;34586;53.616;10.032;2024-02-16T13:31:22;2.93;;;2.30;;
10872;SDS011;34586;53.616;10.032;2024-02-16T13:33:49;3.57;;;2.43;;
10872;SDS011;34586;53.616;10.032;2024-02-16T13:36:16;6.83;;;2.47;;
10872;SDS011;34586;53.616;10.032;2024-02-16T13:38:42;3.77;;;2.67;;
10872;SDS011;34586;53.616;10.032;2024-02-16T13:41:08;3.50;;;2.30;;
10872;SDS011;34586;53.616;10.032;2024-02-16T13:43:33;7.13;;;2.93;;
10872;SDS011;34586;53.616;10.032;2024-02-16T13:45:59;5.93;;;2.60;;
10872;SDS011;34586;53.616;10.032;2024-02-16T13:48:25;5.47;;;2.90;;
10872;SDS011;34586;53.616;10.032;2024-02-16T13:50:51;3.77;;;2.73;;
10872;SDS011;34586;53.616;10.032;2024-02-16T13:53:16;2.77;;;2.30;;
10872;SDS011;34586;53.616;10.032;2024-02-16T13:55:43;2.60;;;2.10;;
10872;SDS011;34586;53.616;10.032;2024-02-16T13:58:09;5.43;;;3.17;;
10872;SDS011;34586;53.616;10.032;2024-02-16T14:00:36;4.10;;;2.23;;
10872;SDS011;34586;53.616;10.032;2024-02-16T14:03:02;4.33;;;2.77;;
10872;SDS011;34586;53.616;10.032;2024-02-16T14:05:36;5.40;;;2.50;;
10872;SDS011;34586;53.616;10.032;2024-02-16T14:08:02;3.20;;;2.60;;
10872;SDS011;34586;53.616;10.032;2024-02-16T14:10:29;5.73;;;3.17;;
10872;SDS011;34586;53.616;10.032;2024-02-16T14:12:57;4.77;;;2.83;;
10872;SDS011;34586;53.616;10.032;2024-02-16T14:15:22;5.63;;;3.10;;
10872;SDS011;34586;53.616;10.032;2024-02-16T14:17:48;4.43;;;3.00;;
10872;SDS011;34586;53.616;10.032;2024-02-16T14:20:14;5.03;;;3.00;;
10872;SDS011;34586;53.616;10.032;2024-02-16T14:22:39;6.33;;;3.40;;
10872;SDS011;34586;53.616;10.032;2024-02-16T14:25:05;6.00;;;3.20;;
10872;SDS011;34586;53.616;10.032;2024-02-16T14:27:31;3.60;;;2.80;;
10872;SDS011;34586;53.616;10.032;2024-02-16T14:29:57;3.37;;;2.80;;
10872;SDS011;34586;53.616;10.032;2024-02-16T14:32:23;4.67;;;3.10;;